createdAt,value
2023-05-22T00:01:37.724Z,3.33
2023-05-22T00:04:41.148Z,2.80
2023-05-22T00:07:44.418Z,3.20
2023-05-22T00:10:47.569Z,2.88
2023-05-22T00:13:50.760Z,2.65
2023-05-22T00:16:55.495Z,2.30
2023-05-22T00:20:08.140Z,2.40
2023-05-22T00:23:15.726Z,2.88
2023-05-22T00:26:22.333Z,2.20
2023-05-22T00:29:25.626Z,2.38
2023-05-22T00:32:29.073Z,2.40
2023-05-22T00:35:33.702Z,2.20
2023-05-22T00:38:37.903Z,2.10
2023-05-22T00:41:41.286Z,1.98
2023-05-22T00:44:44.593Z,2.13
2023-05-22T00:47:48.098Z,2.30
2023-05-22T00:50:52.469Z,2.30
2023-05-22T00:53:56.109Z,2.40
2023-05-22T00:57:01.549Z,2.10
2023-05-22T01:00:06.565Z,2.15
2023-05-22T01:03:12.430Z,1.97
2023-05-22T01:06:18.363Z,2.37
2023-05-22T01:09:21.711Z,2.45
2023-05-22T01:12:44.232Z,2.50
2023-05-22T01:15:59.322Z,2.88
2023-05-22T01:19:11.562Z,3.10
2023-05-22T01:22:33.278Z,3.37
2023-05-22T01:25:45.758Z,3.30
2023-05-22T01:29:13.236Z,3.45
2023-05-22T01:32:21.588Z,3.53
2023-05-22T01:35:26.636Z,3.10
2023-05-22T01:38:30.562Z,3.30
2023-05-22T01:41:36.310Z,3.20
2023-05-22T01:44:40.951Z,3.28
2023-05-22T01:47:44.637Z,3.28
2023-05-22T01:50:51.275Z,3.00
2023-05-22T01:54:07.544Z,3.20
2023-05-22T01:57:22.196Z,2.90
2023-05-22T02:00:27.682Z,2.95
2023-05-22T02:03:33.624Z,2.75
2023-05-22T02:06:38.152Z,3.30
2023-05-22T02:09:42.156Z,3.17
2023-05-22T02:12:48.603Z,3.13
2023-05-22T02:15:52.911Z,3.10
2023-05-22T02:19:08.851Z,2.70
2023-05-22T02:22:15.084Z,3.17
2023-05-22T02:25:18.371Z,3.50
2023-05-22T02:28:22.537Z,3.45
2023-05-22T02:31:26.527Z,3.25
2023-05-22T02:34:31.738Z,3.53
2023-05-22T02:37:36.046Z,3.50
2023-05-22T02:40:39.716Z,3.83
2023-05-22T02:43:43.506Z,3.28
2023-05-22T02:46:47.559Z,3.55
2023-05-22T02:49:50.832Z,3.53
2023-05-22T02:52:54.183Z,3.37
2023-05-22T02:55:59.007Z,3.60
2023-05-22T02:59:03.198Z,3.53
2023-05-22T03:02:06.891Z,3.88
2023-05-22T03:05:10.307Z,3.40
2023-05-22T03:08:15.501Z,3.90
2023-05-22T03:11:18.820Z,3.80
2023-05-22T03:14:22.187Z,3.75
2023-05-22T03:17:25.644Z,3.70
2023-05-22T03:20:29.975Z,3.95
2023-05-22T03:23:33.238Z,4.00
2023-05-22T03:26:36.525Z,4.23
2023-05-22T03:29:43.476Z,4.10
2023-05-22T03:32:47.442Z,3.70
2023-05-22T03:35:50.993Z,3.72
2023-05-22T03:38:54.386Z,4.17
2023-05-22T03:41:57.663Z,3.80
2023-05-22T03:45:01.985Z,4.72
2023-05-22T03:48:05.516Z,4.13
2023-05-22T03:51:09.027Z,4.32
2023-05-22T03:54:12.258Z,4.30
2023-05-22T03:57:16.507Z,4.80
2023-05-22T04:00:20.055Z,4.75
2023-05-22T04:03:23.385Z,4.75
2023-05-22T04:06:27.081Z,4.88
2023-05-22T04:09:34.740Z,4.80
2023-05-22T04:12:37.967Z,5.03
2023-05-22T04:15:43.616Z,5.28
2023-05-22T04:18:47.022Z,5.43
2023-05-22T04:21:50.326Z,5.13
2023-05-22T04:24:53.803Z,4.63
2023-05-22T04:27:57.219Z,4.60
2023-05-22T04:31:00.746Z,4.68
2023-05-22T04:34:07.730Z,4.93
2023-05-22T04:37:11.036Z,4.10
2023-05-22T04:40:15.387Z,3.87
2023-05-22T04:43:18.898Z,4.23
2023-05-22T04:46:22.585Z,4.00
2023-05-22T04:49:26.377Z,3.10
2023-05-22T04:52:29.776Z,3.58
2023-05-22T04:55:34.138Z,3.07
2023-05-22T04:58:38.028Z,3.73
2023-05-22T05:01:45.668Z,3.58
2023-05-22T05:04:48.999Z,4.53
2023-05-22T05:07:53.365Z,3.15
2023-05-22T05:10:56.978Z,3.07
2023-05-22T05:14:00.224Z,3.57
2023-05-22T05:17:04.693Z,2.28
2023-05-22T05:20:10.628Z,1.52
2023-05-22T05:23:15.454Z,3.10
2023-05-22T05:26:19.347Z,2.10
2023-05-22T05:29:22.681Z,3.20
2023-05-22T05:32:34.639Z,1.90
2023-05-22T05:35:50.418Z,1.90
2023-05-22T05:38:54.982Z,3.25
2023-05-22T05:41:58.847Z,2.57
2023-05-22T05:45:02.109Z,2.63
2023-05-22T05:48:08.328Z,2.60
2023-05-22T05:51:14.739Z,2.90
2023-05-22T05:54:19.830Z,2.63
2023-05-22T05:57:24.183Z,2.60
2023-05-22T06:00:28.808Z,2.83
2023-05-22T06:03:49.411Z,2.80
2023-05-22T06:07:01.951Z,3.08
2023-05-22T06:10:14.746Z,2.60
2023-05-22T06:13:31.127Z,3.10
2023-05-22T06:16:34.799Z,2.93
2023-05-22T06:19:38.424Z,3.15
2023-05-22T06:22:41.874Z,2.97
2023-05-22T06:25:46.653Z,3.42
2023-05-22T06:28:51.887Z,2.87
2023-05-22T06:31:56.614Z,5.00
2023-05-22T06:35:00.094Z,4.18
2023-05-22T06:38:04.567Z,4.18
2023-05-22T06:41:08.115Z,3.10
2023-05-22T06:44:13.071Z,3.77
2023-05-22T06:47:16.633Z,2.97
2023-05-22T06:50:20.925Z,3.22
2023-05-22T06:53:26.944Z,2.95
2023-05-22T06:56:32.011Z,3.10
2023-05-22T06:59:44.105Z,3.40
2023-05-22T07:03:19.604Z,4.10
2023-05-22T07:06:41.713Z,3.67
2023-05-22T07:09:45.466Z,3.70
2023-05-22T07:12:48.842Z,3.38
2023-05-22T07:15:52.650Z,2.83
2023-05-22T07:18:56.305Z,3.90
2023-05-22T07:22:00.283Z,3.58
2023-05-22T07:25:05.012Z,3.45
2023-05-22T07:28:11.688Z,4.45
2023-05-22T07:31:26.648Z,2.97
2023-05-22T07:34:34.517Z,3.80
2023-05-22T07:37:41.508Z,3.17
2023-05-22T07:40:45.405Z,2.90
2023-05-22T07:43:48.962Z,3.42
2023-05-22T07:46:57.051Z,3.37
2023-05-22T07:50:04.605Z,3.33
2023-05-22T07:53:11.617Z,3.30
2023-05-22T07:56:19.339Z,3.20
2023-05-22T07:59:25.593Z,3.20
2023-05-22T08:02:33.739Z,3.43
2023-05-22T08:05:37.126Z,3.13
2023-05-22T08:08:40.525Z,3.25
2023-05-22T08:11:43.833Z,3.05
2023-05-22T08:14:47.100Z,3.70
2023-05-22T08:17:50.656Z,3.10
2023-05-22T08:20:54.940Z,2.80
2023-05-22T08:23:58.441Z,2.70
2023-05-22T08:27:01.707Z,3.60
2023-05-22T08:30:05.673Z,2.60
2023-05-22T08:33:10.244Z,2.77
2023-05-22T08:36:13.769Z,2.90
2023-05-22T08:39:19.326Z,3.10
2023-05-22T08:42:23.084Z,2.40
2023-05-22T08:45:29.973Z,3.20
2023-05-22T08:48:33.867Z,2.60
2023-05-22T08:51:42.468Z,3.40
2023-05-22T08:54:53.237Z,3.30
2023-05-22T08:57:58.491Z,3.22
2023-05-22T09:01:02.732Z,2.60
2023-05-22T09:04:06.169Z,3.00
2023-05-22T09:07:09.610Z,2.97
2023-05-22T09:10:13.011Z,3.25
2023-05-22T09:13:30.831Z,2.90
2023-05-22T09:16:34.073Z,2.70
2023-05-22T09:19:37.941Z,2.97
2023-05-22T09:22:41.340Z,3.27
2023-05-22T09:25:45.648Z,3.03
2023-05-22T09:28:48.907Z,3.03
2023-05-22T09:31:52.672Z,2.95
2023-05-22T09:35:04.437Z,3.30
2023-05-22T09:38:12.439Z,3.23
2023-05-22T09:41:22.546Z,4.70
2023-05-22T09:44:26.989Z,3.65
2023-05-22T09:47:30.460Z,3.17
2023-05-22T09:50:34.023Z,3.10
2023-05-22T09:53:39.799Z,3.40
2023-05-22T09:56:44.832Z,3.17
2023-05-22T09:59:58.357Z,2.90
2023-05-22T10:03:12.641Z,3.17
2023-05-22T10:06:18.693Z,3.70
2023-05-22T10:09:31.233Z,3.13
2023-05-22T10:12:41.574Z,3.58
2023-05-22T10:15:46.530Z,3.20
2023-05-22T10:18:50.351Z,3.10
2023-05-22T10:21:56.862Z,3.70
2023-05-22T10:25:01.339Z,3.13
2023-05-22T10:28:05.414Z,3.33
2023-05-22T10:31:24.654Z,5.65
2023-05-22T10:34:50.467Z,3.33
2023-05-22T10:38:22.756Z,2.80
2023-05-22T10:41:28.820Z,2.97
2023-05-22T10:44:33.958Z,3.35
2023-05-22T10:47:37.729Z,3.58
2023-05-22T10:50:51.098Z,3.50
2023-05-22T10:54:05.522Z,3.30
2023-05-22T10:57:18.926Z,3.80
2023-05-22T11:00:25.481Z,2.90
2023-05-22T11:03:52.273Z,3.47
2023-05-22T11:07:06.824Z,2.45
2023-05-22T11:10:10.313Z,3.30
2023-05-22T11:13:13.910Z,2.80
2023-05-22T11:16:17.260Z,3.50
2023-05-22T11:19:24.157Z,3.13
2023-05-22T11:22:32.110Z,2.60
2023-05-22T11:25:37.600Z,3.00
2023-05-22T11:28:41.246Z,2.90
2023-05-22T11:31:47.756Z,3.03
2023-05-22T11:34:51.673Z,3.30
2023-05-22T11:37:56.594Z,3.50
2023-05-22T11:41:00.153Z,3.30
2023-05-22T11:44:07.923Z,2.70
2023-05-22T11:47:11.453Z,3.80
2023-05-22T11:50:22.617Z,3.60
2023-05-22T11:53:34.487Z,3.50
2023-05-22T11:56:37.744Z,2.90
2023-05-22T11:59:44.837Z,3.10
2023-05-22T12:02:48.482Z,3.08
2023-05-22T12:05:52.060Z,3.00
2023-05-22T12:08:55.692Z,3.20
2023-05-22T12:11:59.165Z,3.50
2023-05-22T12:15:06.849Z,3.63
2023-05-22T12:18:11.699Z,3.78
2023-05-22T12:21:15.142Z,3.35
2023-05-22T12:24:23.423Z,3.20
2023-05-22T12:27:33.335Z,3.27
2023-05-22T12:30:43.602Z,3.17
2023-05-22T12:33:46.949Z,3.50
2023-05-22T12:36:50.327Z,2.90
2023-05-22T12:40:00.157Z,3.50
2023-05-22T12:43:03.914Z,4.33
2023-05-22T12:46:07.242Z,2.90
2023-05-22T12:49:11.371Z,3.40
2023-05-22T12:52:14.820Z,3.28
2023-05-22T12:55:18.191Z,3.33
2023-05-22T12:58:21.459Z,2.70
2023-05-22T13:01:25.494Z,3.30
2023-05-22T13:04:29.324Z,3.22
2023-05-22T13:07:32.771Z,3.53
2023-05-22T13:10:36.307Z,3.15
2023-05-22T13:13:39.995Z,3.10
2023-05-22T13:16:43.582Z,3.00
2023-05-22T13:19:46.844Z,3.22
2023-05-22T13:22:50.424Z,2.88
2023-05-22T13:25:53.679Z,2.90
2023-05-22T13:28:56.997Z,3.13
2023-05-22T13:32:01.037Z,3.20
2023-05-22T13:35:04.471Z,3.00
2023-05-22T13:38:07.957Z,3.00
2023-05-22T13:41:11.528Z,2.90
2023-05-22T13:44:14.947Z,3.13
2023-05-22T13:47:18.281Z,3.03
2023-05-22T13:50:21.864Z,4.22
2023-05-22T13:53:25.191Z,2.70
2023-05-22T13:56:28.698Z,2.95
2023-05-22T13:59:32.517Z,2.90
2023-05-22T14:02:36.072Z,3.10
2023-05-22T14:05:39.750Z,3.38
2023-05-22T14:08:43.416Z,2.80
2023-05-22T14:11:46.773Z,3.17
2023-05-22T14:14:50.064Z,2.63
2023-05-22T14:17:53.394Z,3.00
2023-05-22T14:20:56.672Z,3.10
2023-05-22T14:24:02.470Z,3.20
2023-05-22T14:27:06.022Z,3.47
2023-05-22T14:30:13.599Z,4.00
2023-05-22T14:33:16.849Z,3.70
2023-05-22T14:36:20.099Z,3.83
2023-05-22T14:39:24.709Z,3.70
2023-05-22T14:42:27.870Z,2.92
2023-05-22T14:45:31.207Z,2.20
2023-05-22T14:48:34.442Z,2.17
2023-05-22T14:51:37.729Z,2.65
2023-05-22T14:54:41.058Z,2.65
2023-05-22T14:57:44.498Z,2.78
2023-05-22T15:00:48.577Z,2.97
2023-05-22T15:03:51.822Z,3.33
2023-05-22T15:06:55.098Z,3.60
2023-05-22T15:09:58.370Z,3.25
2023-05-22T15:13:01.634Z,2.90
2023-05-22T15:16:05.188Z,3.50
2023-05-22T15:19:09.525Z,3.13
2023-05-22T15:22:19.246Z,2.40
2023-05-22T15:25:23.406Z,2.17
2023-05-22T15:28:26.734Z,2.30
2023-05-22T15:31:31.701Z,3.50
2023-05-22T15:34:34.989Z,3.83
2023-05-22T15:37:38.460Z,3.30
2023-05-22T15:40:42.372Z,3.45
2023-05-22T15:43:46.588Z,3.47
2023-05-22T15:46:49.925Z,4.10
2023-05-22T15:49:53.269Z,2.57
2023-05-22T15:52:56.717Z,3.28
2023-05-22T15:56:00.058Z,3.80
2023-05-22T15:59:03.396Z,3.45
2023-05-22T16:02:07.013Z,3.47
2023-05-22T16:05:10.531Z,3.70
2023-05-22T16:08:15.141Z,3.80
2023-05-22T16:11:18.429Z,4.10
2023-05-22T16:14:21.829Z,3.97
2023-05-22T16:17:28.203Z,4.47
2023-05-22T16:20:31.600Z,4.07
2023-05-22T16:23:35.249Z,3.78
2023-05-22T16:26:39.224Z,4.38
2023-05-22T16:29:42.448Z,4.50
2023-05-22T16:32:46.938Z,4.03
2023-05-22T16:35:50.168Z,3.47
2023-05-22T16:38:53.477Z,3.15
2023-05-22T16:41:56.712Z,3.53
2023-05-22T16:44:59.984Z,2.95
2023-05-22T16:48:03.397Z,3.37
2023-05-22T16:51:07.277Z,3.23
2023-05-22T16:54:10.476Z,2.78
2023-05-22T16:57:13.724Z,3.38
2023-05-22T17:00:17.466Z,4.30
2023-05-22T17:03:21.422Z,3.60
2023-05-22T17:06:24.900Z,3.37
2023-05-22T17:09:28.198Z,3.05
2023-05-22T17:12:31.449Z,3.50
2023-05-22T17:15:34.733Z,3.17
2023-05-22T17:18:38.005Z,3.10
2023-05-22T17:21:41.225Z,3.20
2023-05-22T17:24:45.112Z,2.85
2023-05-22T17:27:48.500Z,2.08
2023-05-22T17:30:51.784Z,2.13
2023-05-22T17:33:55.130Z,2.40
2023-05-22T17:36:59.377Z,2.10
2023-05-22T17:40:02.708Z,2.40
2023-05-22T17:43:06.002Z,2.20
2023-05-22T17:46:09.424Z,2.63
2023-05-22T17:49:12.721Z,2.60
2023-05-22T17:52:16.218Z,2.50
2023-05-22T17:55:21.010Z,2.60
2023-05-22T17:58:24.920Z,2.60
2023-05-22T18:01:29.354Z,2.55
2023-05-22T18:04:36.308Z,2.70
2023-05-22T18:07:39.709Z,2.60
2023-05-22T18:10:43.292Z,2.60
2023-05-22T18:13:46.674Z,2.50
2023-05-22T18:16:49.953Z,2.40
2023-05-22T18:19:53.253Z,2.30
2023-05-22T18:22:56.619Z,2.30
2023-05-22T18:25:59.959Z,2.60
2023-05-22T18:29:03.243Z,2.30
2023-05-22T18:32:09.470Z,2.40
2023-05-22T18:35:12.746Z,2.50
2023-05-22T18:38:16.372Z,2.20
2023-05-22T18:41:19.676Z,2.88
2023-05-22T18:44:23.640Z,2.10
2023-05-22T18:47:27.236Z,2.28
2023-05-22T18:50:30.544Z,2.63
2023-05-22T18:53:34.893Z,2.20
2023-05-22T18:56:38.967Z,2.60
2023-05-22T18:59:43.510Z,2.30
2023-05-22T19:02:49.919Z,2.53
2023-05-22T19:05:53.428Z,2.60
2023-05-22T19:08:56.922Z,2.67
2023-05-22T19:12:00.378Z,2.60
2023-05-22T19:15:04.888Z,2.63
2023-05-22T19:18:08.228Z,2.80
2023-05-22T19:21:11.603Z,2.50
2023-05-22T19:24:14.832Z,2.20
2023-05-22T19:27:18.552Z,2.40
2023-05-22T19:30:22.357Z,2.30
2023-05-22T19:33:26.445Z,2.63
2023-05-22T19:36:29.664Z,2.20
2023-05-22T19:39:32.944Z,2.90
2023-05-22T19:42:40.795Z,2.75
2023-05-22T19:45:45.394Z,2.80
2023-05-22T19:48:48.695Z,2.60
2023-05-22T19:51:54.143Z,2.90
2023-05-22T19:54:58.737Z,2.73
2023-05-22T19:58:02.055Z,3.72
2023-05-22T20:01:05.639Z,4.00
2023-05-22T20:04:08.991Z,3.10
2023-05-22T20:07:13.584Z,3.17
2023-05-22T20:10:17.279Z,3.23
2023-05-22T20:13:20.496Z,3.90
2023-05-22T20:16:26.994Z,2.97
2023-05-22T20:19:34.549Z,2.90
2023-05-22T20:22:37.892Z,2.87
2023-05-22T20:25:41.610Z,2.80
2023-05-22T20:28:45.043Z,2.80
2023-05-22T20:31:48.685Z,3.03
2023-05-22T20:34:52.385Z,2.53
2023-05-22T20:37:55.701Z,2.83
2023-05-22T20:40:59.715Z,2.67
2023-05-22T20:44:03.797Z,3.78
2023-05-22T20:47:08.491Z,2.92
2023-05-22T20:50:11.879Z,2.40
2023-05-22T20:53:15.208Z,2.63
2023-05-22T20:56:18.474Z,2.50
2023-05-22T20:59:22.220Z,2.30
2023-05-22T21:02:25.847Z,2.80
2023-05-22T21:05:29.137Z,2.70
2023-05-22T21:08:32.660Z,2.50
2023-05-22T21:11:35.883Z,3.10
2023-05-22T21:14:40.220Z,2.95
2023-05-22T21:17:46.089Z,2.40
2023-05-22T21:20:49.420Z,2.60
2023-05-22T21:23:55.188Z,3.00
2023-05-22T21:26:58.845Z,2.73
2023-05-22T21:30:02.097Z,3.03
2023-05-22T21:33:05.613Z,3.03
2023-05-22T21:36:08.969Z,3.20
2023-05-22T21:39:13.022Z,2.53
2023-05-22T21:42:16.712Z,3.07
2023-05-22T21:45:19.943Z,2.63
2023-05-22T21:48:23.230Z,2.90
2023-05-22T21:51:26.473Z,2.75
2023-05-22T21:54:29.627Z,2.50
2023-05-22T21:57:32.846Z,2.90
2023-05-22T22:00:36.277Z,2.80
2023-05-22T22:03:39.615Z,2.83
2023-05-22T22:06:42.905Z,2.78
2023-05-22T22:09:46.115Z,3.30
2023-05-22T22:12:50.005Z,2.67
2023-05-22T22:15:53.666Z,2.90
2023-05-22T22:18:58.174Z,2.75
2023-05-22T22:22:02.083Z,2.80
2023-05-22T22:25:05.991Z,3.07
2023-05-22T22:28:09.274Z,3.17
2023-05-22T22:31:15.398Z,3.15
2023-05-22T22:34:18.664Z,2.90
2023-05-22T22:37:22.087Z,3.03
2023-05-22T22:40:26.693Z,2.63
2023-05-22T22:43:31.377Z,2.80
2023-05-22T22:46:34.723Z,2.80
2023-05-22T22:49:38.396Z,2.95
2023-05-22T22:52:45.768Z,2.80
2023-05-22T22:55:54.074Z,2.30
2023-05-22T22:58:57.935Z,2.57
2023-05-22T23:02:01.825Z,2.50
2023-05-22T23:05:05.507Z,3.00
2023-05-22T23:08:08.768Z,3.20
2023-05-22T23:11:12.134Z,2.83
2023-05-22T23:14:15.495Z,2.97
2023-05-22T23:17:18.824Z,2.38
2023-05-22T23:20:22.259Z,2.70
2023-05-22T23:23:25.539Z,2.88
2023-05-22T23:26:29.099Z,2.70
2023-05-22T23:29:32.312Z,2.53
2023-05-22T23:32:35.579Z,2.53
2023-05-22T23:35:39.190Z,2.50
2023-05-22T23:38:42.708Z,2.70
2023-05-22T23:41:46.052Z,2.90
2023-05-22T23:44:49.339Z,3.10
2023-05-22T23:47:52.760Z,2.83
2023-05-22T23:50:56.051Z,2.83
2023-05-22T23:53:59.428Z,2.83
2023-05-22T23:57:02.727Z,2.63
